Airfield :
LOGIN :

Register | Disclaimer

   EN    FR    IT 

 










Legend :    VFR   Marginal VFR   IFR   Intensive IFR   Very Intensive IFR
Visi :
Ceiling :
>= 8 km
>= 3000ft
5 to 8 km
1000 to 3000 ft
1500m to 5 km
500 to 1000 ft
800 to 1500m
200 to 500 ft
< 800m
< 200 ft
Symbols :   Thunderstorms  Fog  Heavy snow  Heavy precipitations  Wind > 20 kt
SIGMETs :     Misc.  Thunderstorms  Icing  Turbulence  Mountain Waves  Volcanic Ashes







- Airport Elevation : 392 ft
- IATA code : CDG
- Download approach charts


LFPG - Paris-Aeroport Charles De Gaulle

CURRENT METAR :
  • 191030Z 34010KT 300V010 8000 SCT020 FEW024CB BKN220 18/11 Q1007 TEMPO 2500 TSRA SCT015CB

EXPIRED METARs :
  • 191000Z 29009KT 7000 FEW011 FEW024TCU SCT044 BKN220 17/12 Q1007 NOSIG
  • 190930Z 32007KT 290V350 6000 FEW007 BKN067 16/11 Q1007 NOSIG
  • 190904Z 31005KT 280V350 4000 BR FEW007 BKN050 15/13 Q1007 BECMG 6000 NSW
  • 190830Z 28004KT 250V320 3500 BR FEW007 BKN044 BKN060 15/12 Q1007 BECMG 6000 NSW NSC
  • 190800Z 31004KT 3500 BR BKN044 BKN060 14/12 Q1007 BECMG 6000 NSW NSC

TAF AMD TAF LFPG
Valid from the 19 at 08:00 until the 20 at 12:00 UTC


190803Z 1908/2012 34005KT 3500 BR BKN040 TX18/1912Z TN11/2004Z
BECMG 1908/1910 8000 NSW
PROB40 1912/1921 4000 SHRA SCT020TCU BKN060
PROB30
TEMPO 1912/1918 2500 TSRA SCT015CB
PROB40
TEMPO 2002/2006 4000 -RA BKN020
ATIS : +33 1 48 62 10 92
No reported NOTAMs for that airfield.



MET'MAP, your aeronautical weather chart ! - Copyright ORBIFLY December 2007 - Disclaimer

ORBIFLY MET'MAP TEAM :

Programming & Development : Alexandra Zaïnal
Concept & Development : Baudouin d'Aumeries
Co-Development & Prog : Marc-Olivier Méhu
Technical & hardware support : Manuel Goepfert

Contact : metmap@orbifly.com




SOURCES & CREDITS :

   NOAA